CSDMS RJNS-RJTT
Flight info
| Callsign | CSDMS |
|---|---|
| Flight time | 0h 45m |
| Altitude | 27000 |
| Route | ARTIC Y71 XAC DCT 351751N1392513E 351815N1392843E DCT 351824N1392951E 351814N1393112E DCT KOSKA Y588 HATSU UTIBO |
| Aircraft | B737/M-SDE2E3FGHIRWXY/LB1 |
Departure
| Time | 2026-04-20 03:36 |
|---|---|
| Airport | Mount Fuji Shizuoka Airport (RJNS) |
Arrival
| Time | 2026-04-20 04:21 |
|---|---|
| Airport | Tokyo Haneda International Airport (RJTT) |
| Time | Latitude | Longitude | Altitude | Speed | Heading |
|---|---|---|---|---|---|
| 2026-04-20 03:10 | 34.79741 | 138.17727 | 475 ft | 0 kts | 202° |
| 2026-04-20 03:28 | 34.79744 | 138.17728 | 448 ft | 3 kts | 202° |
| 2026-04-20 03:29 | 34.79769 | 138.17740 | 448 ft | 4 kts | 202° |
| 2026-04-20 03:29 | 34.79794 | 138.17753 | 448 ft | 4 kts | 202° |
| 2026-04-20 03:29 | 34.79813 | 138.17764 | 448 ft | 4 kts | 244° |
| 2026-04-20 03:29 | 34.79811 | 138.17786 | 448 ft | 4 kts | 304° |
| 2026-04-20 03:30 | 34.79798 | 138.17810 | 448 ft | 1 kts | 292° |
| 2026-04-20 03:30 | 34.79798 | 138.17811 | 448 ft | 0 kts | 292° |
| 2026-04-20 03:33 | 34.79802 | 138.17797 | 448 ft | 5 kts | 292° |
| 2026-04-20 03:33 | 34.79818 | 138.17751 | 448 ft | 6 kts | 292° |
| 2026-04-20 03:34 | 34.79834 | 138.17701 | 448 ft | 7 kts | 292° |
| 2026-04-20 03:34 | 34.79851 | 138.17663 | 450 ft | 8 kts | 310° |
| 2026-04-20 03:34 | 34.79900 | 138.17643 | 457 ft | 8 kts | 8° |
| 2026-04-20 03:34 | 34.79950 | 138.17663 | 462 ft | 7 kts | 19° |
| 2026-04-20 03:35 | 34.80006 | 138.17697 | 462 ft | 10 kts | 54° |
| 2026-04-20 03:35 | 34.80003 | 138.17732 | 462 ft | 0 kts | 111° |
| 2026-04-20 03:35 | 34.79954 | 138.17882 | 458 ft | 58 kts | 112° |
| 2026-04-20 03:36 | 34.79692 | 138.18660 | 442 ft | 136 kts | 113° |
| 2026-04-20 03:36 | 34.79263 | 138.19877 | 695 ft | 179 kts | 113° |
| 2026-04-20 03:36 | 34.78660 | 138.21366 | 1224 ft | 207 kts | 119° |
| 2026-04-20 03:36 | 34.77676 | 138.22792 | 1843 ft | 228 kts | 142° |
| 2026-04-20 03:37 | 34.76356 | 138.23802 | 3159 ft | 224 kts | 146° |
| 2026-04-20 03:37 | 34.74994 | 138.24871 | 3798 ft | 248 kts | 144° |
| 2026-04-20 03:37 | 34.73582 | 138.26057 | 4682 ft | 256 kts | 143° |
| 2026-04-20 03:37 | 34.72122 | 138.27340 | 5715 ft | 261 kts | 142° |
| 2026-04-20 03:38 | 34.70668 | 138.28662 | 6844 ft | 262 kts | 142° |
| 2026-04-20 03:38 | 34.69206 | 138.30025 | 7900 ft | 267 kts | 142° |
| 2026-04-20 03:38 | 34.67734 | 138.31419 | 9052 ft | 269 kts | 143° |
| 2026-04-20 03:38 | 34.66241 | 138.32843 | 10165 ft | 275 kts | 143° |
| 2026-04-20 03:39 | 34.64683 | 138.34329 | 10776 ft | 299 kts | 143° |
| 2026-04-20 03:39 | 34.62844 | 138.35767 | 11017 ft | 330 kts | 160° |
| 2026-04-20 03:39 | 34.60584 | 138.36265 | 11753 ft | 341 kts | 181° |
| 2026-04-20 03:39 | 34.58213 | 138.35869 | 12714 ft | 346 kts | 189° |
| 2026-04-20 03:40 | 34.55826 | 138.35327 | 13698 ft | 353 kts | 190° |
| 2026-04-20 03:40 | 34.53358 | 138.35043 | 14578 ft | 360 kts | 175° |
| 2026-04-20 03:40 | 34.50937 | 138.35889 | 15550 ft | 367 kts | 154° |
| 2026-04-20 03:40 | 34.48898 | 138.37737 | 16480 ft | 377 kts | 134° |
| 2026-04-20 03:41 | 34.47454 | 138.40444 | 17386 ft | 389 kts | 114° |
| 2026-04-20 03:41 | 34.46778 | 138.43661 | 18259 ft | 400 kts | 102° |
| 2026-04-20 03:41 | 34.46503 | 138.47053 | 19000 ft | 411 kts | 87° |
| 2026-04-20 03:41 | 34.47233 | 138.50431 | 19670 ft | 421 kts | 66° |
| 2026-04-20 03:42 | 34.48860 | 138.53325 | 20007 ft | 423 kts | 45° |
| 2026-04-20 03:42 | 34.51238 | 138.55481 | 20080 ft | 435 kts | 26° |
| 2026-04-20 03:42 | 34.54156 | 138.56628 | 20106 ft | 448 kts | 9° |
| 2026-04-20 03:42 | 34.57245 | 138.57225 | 20091 ft | 450 kts | 7° |
| 2026-04-20 03:43 | 34.60280 | 138.58201 | 20070 ft | 454 kts | 24° |
| 2026-04-20 03:43 | 34.62885 | 138.60373 | 20098 ft | 455 kts | 43° |
| 2026-04-20 03:43 | 34.64841 | 138.63308 | 20086 ft | 455 kts | 60° |
| 2026-04-20 03:43 | 34.66265 | 138.66787 | 20094 ft | 454 kts | 66° |
| 2026-04-20 03:44 | 34.67555 | 138.70237 | 20079 ft | 454 kts | 66° |
| 2026-04-20 03:44 | 34.68891 | 138.73718 | 20077 ft | 454 kts | 65° |
| 2026-04-20 03:44 | 34.70225 | 138.77192 | 20082 ft | 453 kts | 69° |
| 2026-04-20 03:44 | 34.71176 | 138.80841 | 20084 ft | 452 kts | 78° |
| 2026-04-20 03:45 | 34.71653 | 138.84609 | 20082 ft | 449 kts | 88° |
| 2026-04-20 03:45 | 34.71666 | 138.88399 | 20086 ft | 448 kts | 93° |
| 2026-04-20 03:45 | 34.71585 | 138.92198 | 20091 ft | 448 kts | 93° |
| 2026-04-20 03:45 | 34.71525 | 138.95942 | 20089 ft | 448 kts | 93° |
| 2026-04-20 03:46 | 34.71493 | 138.99754 | 20126 ft | 451 kts | 92° |
| 2026-04-20 03:46 | 34.71473 | 139.03586 | 20072 ft | 452 kts | 92° |
| 2026-04-20 03:46 | 34.71453 | 139.07402 | 20117 ft | 452 kts | 92° |
| 2026-04-20 03:46 | 34.71431 | 139.11227 | 20060 ft | 453 kts | 92° |
| 2026-04-20 03:47 | 34.71408 | 139.15004 | 20070 ft | 451 kts | 92° |
| 2026-04-20 03:47 | 34.71383 | 139.18787 | 20060 ft | 438 kts | 92° |
| 2026-04-20 03:47 | 34.71359 | 139.22400 | 20054 ft | 417 kts | 92° |
| 2026-04-20 03:47 | 34.71333 | 139.25873 | 20071 ft | 410 kts | 92° |
| 2026-04-20 03:48 | 34.71303 | 139.29377 | 20080 ft | 416 kts | 92° |
| 2026-04-20 03:48 | 34.71472 | 139.32913 | 20059 ft | 423 kts | 79° |
| 2026-04-20 03:48 | 34.72571 | 139.36217 | 20082 ft | 421 kts | 58° |
| 2026-04-20 03:48 | 34.74434 | 139.38839 | 20073 ft | 411 kts | 39° |
| 2026-04-20 03:49 | 34.76908 | 139.40670 | 20093 ft | 422 kts | 22° |
| 2026-04-20 03:49 | 34.79745 | 139.41595 | 20075 ft | 425 kts | 3° |
| 2026-04-20 03:49 | 34.82175 | 139.41716 | 20086 ft | 421 kts | 359° |
| 2026-04-20 03:49 | 34.85094 | 139.41726 | 20072 ft | 417 kts | 358° |
| 2026-04-20 03:50 | 34.87997 | 139.41697 | 20066 ft | 416 kts | 357° |
| 2026-04-20 03:50 | 34.90858 | 139.41672 | 20082 ft | 415 kts | 358° |
| 2026-04-20 03:50 | 34.93763 | 139.41664 | 20077 ft | 416 kts | 358° |
| 2026-04-20 03:50 | 34.96661 | 139.41674 | 20060 ft | 411 kts | 358° |
| 2026-04-20 03:51 | 34.99504 | 139.41695 | 19404 ft | 402 kts | 358° |
| 2026-04-20 03:51 | 35.02234 | 139.41722 | 18721 ft | 392 kts | 358° |
| 2026-04-20 03:51 | 35.04937 | 139.41750 | 17907 ft | 384 kts | 359° |
| 2026-04-20 03:51 | 35.07588 | 139.41777 | 17063 ft | 376 kts | 359° |
| 2026-04-20 03:52 | 35.10171 | 139.41802 | 16226 ft | 372 kts | 360° |
| 2026-04-20 03:52 | 35.12668 | 139.41828 | 16081 ft | 346 kts | 360° |
| 2026-04-20 03:52 | 35.15020 | 139.41852 | 15913 ft | 332 kts | 360° |
| 2026-04-20 03:52 | 35.17319 | 139.41874 | 15783 ft | 330 kts | 360° |
| 2026-04-20 03:53 | 35.19602 | 139.41897 | 15646 ft | 322 kts | 360° |
| 2026-04-20 03:53 | 35.21784 | 139.41919 | 15489 ft | 303 kts | 360° |
| 2026-04-20 03:53 | 35.23807 | 139.41939 | 15360 ft | 286 kts | 360° |
| 2026-04-20 03:53 | 35.25760 | 139.41959 | 15272 ft | 275 kts | 0° |
| 2026-04-20 03:54 | 35.27638 | 139.42190 | 15126 ft | 270 kts | 21° |
| 2026-04-20 03:54 | 35.29178 | 139.43412 | 15123 ft | 261 kts | 51° |
| 2026-04-20 03:54 | 35.30112 | 139.45277 | 15052 ft | 257 kts | 75° |
| 2026-04-20 03:54 | 35.30479 | 139.47408 | 14993 ft | 255 kts | 85° |
| 2026-04-20 03:55 | 35.30830 | 139.49503 | 15106 ft | 257 kts | 81° |
| 2026-04-20 03:55 | 35.31014 | 139.51683 | 14901 ft | 257 kts | 102° |
| 2026-04-20 03:55 | 35.30281 | 139.53562 | 14785 ft | 243 kts | 140° |
| 2026-04-20 03:55 | 35.28899 | 139.54916 | 14778 ft | 264 kts | 142° |
| 2026-04-20 03:56 | 35.27539 | 139.56464 | 14716 ft | 267 kts | 138° |
| 2026-04-20 03:56 | 35.25978 | 139.57775 | 14710 ft | 287 kts | 161° |
| 2026-04-20 03:56 | 35.23967 | 139.58200 | 14677 ft | 301 kts | 183° |
| 2026-04-20 03:56 | 35.21921 | 139.57732 | 14700 ft | 298 kts | 194° |
| 2026-04-20 03:57 | 35.19923 | 139.57076 | 14688 ft | 294 kts | 195° |
| 2026-04-20 03:57 | 35.17954 | 139.56405 | 14688 ft | 294 kts | 194° |
| 2026-04-20 03:57 | 35.15996 | 139.55741 | 14696 ft | 295 kts | 194° |
| 2026-04-20 03:57 | 35.14005 | 139.55077 | 14696 ft | 296 kts | 194° |
| 2026-04-20 03:58 | 35.12010 | 139.54421 | 14697 ft | 297 kts | 194° |
| 2026-04-20 03:58 | 35.10008 | 139.53768 | 14694 ft | 297 kts | 194° |
| 2026-04-20 03:58 | 35.08004 | 139.53119 | 14692 ft | 297 kts | 194° |
| 2026-04-20 03:58 | 35.06004 | 139.52473 | 14696 ft | 297 kts | 194° |
| 2026-04-20 03:59 | 35.04005 | 139.51828 | 14690 ft | 297 kts | 193° |
| 2026-04-20 03:59 | 35.02004 | 139.51184 | 14687 ft | 296 kts | 193° |
| 2026-04-20 03:59 | 35.00030 | 139.50585 | 14680 ft | 295 kts | 187° |
| 2026-04-20 03:59 | 34.97999 | 139.50730 | 14691 ft | 293 kts | 165° |
| 2026-04-20 04:00 | 34.96147 | 139.51754 | 14684 ft | 294 kts | 146° |
| 2026-04-20 04:00 | 34.94597 | 139.53402 | 14694 ft | 295 kts | 138° |
| 2026-04-20 04:00 | 34.93134 | 139.55162 | 14676 ft | 295 kts | 137° |
| 2026-04-20 04:00 | 34.91707 | 139.56919 | 14634 ft | 287 kts | 136° |
| 2026-04-20 04:01 | 34.90341 | 139.58600 | 14559 ft | 274 kts | 137° |
| 2026-04-20 04:01 | 34.89027 | 139.60209 | 14470 ft | 262 kts | 137° |
| 2026-04-20 04:01 | 34.87758 | 139.61752 | 14257 ft | 256 kts | 137° |
| 2026-04-20 04:01 | 34.86498 | 139.63276 | 13956 ft | 254 kts | 137° |
| 2026-04-20 04:02 | 34.85248 | 139.64785 | 13614 ft | 252 kts | 137° |
| 2026-04-20 04:02 | 34.84002 | 139.66286 | 13245 ft | 251 kts | 137° |
| 2026-04-20 04:02 | 34.82765 | 139.67773 | 12869 ft | 251 kts | 137° |
| 2026-04-20 04:02 | 34.81535 | 139.69253 | 12701 ft | 245 kts | 137° |
| 2026-04-20 04:03 | 34.80325 | 139.70706 | 12612 ft | 243 kts | 137° |
| 2026-04-20 04:03 | 34.79115 | 139.72157 | 12534 ft | 245 kts | 137° |
| 2026-04-20 04:03 | 34.77906 | 139.73608 | 12475 ft | 248 kts | 137° |
| 2026-04-20 04:03 | 34.76668 | 139.75091 | 12409 ft | 251 kts | 136° |
| 2026-04-20 04:04 | 34.75430 | 139.76576 | 12345 ft | 250 kts | 136° |
| 2026-04-20 04:04 | 34.74192 | 139.78059 | 12279 ft | 249 kts | 136° |
| 2026-04-20 04:04 | 34.72961 | 139.79531 | 12213 ft | 248 kts | 136° |
| 2026-04-20 04:04 | 34.71725 | 139.81010 | 12157 ft | 249 kts | 136° |
| 2026-04-20 04:05 | 34.70593 | 139.82623 | 12009 ft | 253 kts | 119° |
| 2026-04-20 04:05 | 34.70165 | 139.84648 | 12010 ft | 253 kts | 94° |
| 2026-04-20 04:05 | 34.70518 | 139.86761 | 12002 ft | 259 kts | 68° |
| 2026-04-20 04:05 | 34.71619 | 139.88539 | 12012 ft | 269 kts | 45° |
| 2026-04-20 04:06 | 34.73154 | 139.89866 | 12014 ft | 277 kts | 34° |
| 2026-04-20 04:06 | 34.74830 | 139.91056 | 11993 ft | 278 kts | 33° |
| 2026-04-20 04:06 | 34.76472 | 139.92220 | 11984 ft | 275 kts | 34° |
| 2026-04-20 04:06 | 34.78142 | 139.93427 | 11988 ft | 274 kts | 34° |
| 2026-04-20 04:07 | 34.79746 | 139.94607 | 11983 ft | 272 kts | 37° |
| 2026-04-20 04:07 | 34.81016 | 139.96211 | 11990 ft | 260 kts | 66° |
| 2026-04-20 04:07 | 34.81578 | 139.98266 | 12003 ft | 254 kts | 85° |
| 2026-04-20 04:07 | 34.81816 | 140.00411 | 12004 ft | 257 kts | 86° |
| 2026-04-20 04:08 | 34.82038 | 140.02583 | 12006 ft | 258 kts | 86° |
| 2026-04-20 04:08 | 34.82511 | 140.04663 | 11921 ft | 264 kts | 62° |
| 2026-04-20 04:08 | 34.83817 | 140.06228 | 11667 ft | 268 kts | 34° |
| 2026-04-20 04:08 | 34.85579 | 140.07010 | 11300 ft | 274 kts | 12° |
| 2026-04-20 04:09 | 34.87495 | 140.06959 | 10947 ft | 278 kts | 350° |
| 2026-04-20 04:09 | 34.89379 | 140.06400 | 10646 ft | 277 kts | 346° |
| 2026-04-20 04:09 | 34.91235 | 140.05776 | 10335 ft | 276 kts | 346° |
| 2026-04-20 04:09 | 34.93080 | 140.05147 | 10036 ft | 274 kts | 346° |
| 2026-04-20 04:10 | 34.94920 | 140.04527 | 9701 ft | 273 kts | 346° |
| 2026-04-20 04:10 | 34.96747 | 140.03919 | 9406 ft | 271 kts | 347° |
| 2026-04-20 04:10 | 34.98554 | 140.03322 | 9219 ft | 268 kts | 347° |
| 2026-04-20 04:10 | 35.00334 | 140.02739 | 9076 ft | 268 kts | 347° |
| 2026-04-20 04:11 | 35.02137 | 140.02151 | 8946 ft | 268 kts | 347° |
| 2026-04-20 04:11 | 35.03940 | 140.01563 | 8799 ft | 268 kts | 347° |
| 2026-04-20 04:11 | 35.05749 | 140.00974 | 8672 ft | 268 kts | 347° |
| 2026-04-20 04:11 | 35.07553 | 140.00388 | 8534 ft | 268 kts | 347° |
| 2026-04-20 04:12 | 35.09361 | 139.99799 | 8402 ft | 268 kts | 347° |
| 2026-04-20 04:12 | 35.11170 | 139.99210 | 8272 ft | 268 kts | 347° |
| 2026-04-20 04:12 | 35.12944 | 139.98633 | 8144 ft | 267 kts | 347° |
| 2026-04-20 04:12 | 35.14767 | 139.98048 | 7990 ft | 267 kts | 349° |
| 2026-04-20 04:13 | 35.16626 | 139.97861 | 7474 ft | 273 kts | 4° |
| 2026-04-20 04:13 | 35.18522 | 139.97954 | 6943 ft | 272 kts | 5° |
| 2026-04-20 04:13 | 35.20415 | 139.98043 | 6412 ft | 270 kts | 4° |
| 2026-04-20 04:13 | 35.22285 | 139.98109 | 5843 ft | 268 kts | 3° |
| 2026-04-20 04:14 | 35.24119 | 139.98159 | 5311 ft | 265 kts | 2° |
| 2026-04-20 04:14 | 35.25951 | 139.98204 | 4792 ft | 262 kts | 2° |
| 2026-04-20 04:14 | 35.27771 | 139.98236 | 4266 ft | 260 kts | 2° |
| 2026-04-20 04:14 | 35.29510 | 139.97941 | 4055 ft | 248 kts | 339° |
| 2026-04-20 04:15 | 35.30989 | 139.97007 | 3979 ft | 230 kts | 330° |
| 2026-04-20 04:15 | 35.32283 | 139.96040 | 3975 ft | 207 kts | 329° |
| 2026-04-20 04:15 | 35.33464 | 139.95167 | 3964 ft | 192 kts | 331° |
| 2026-04-20 04:15 | 35.34613 | 139.94335 | 4000 ft | 194 kts | 331° |
| 2026-04-20 04:16 | 35.35792 | 139.93491 | 3975 ft | 201 kts | 330° |
| 2026-04-20 04:16 | 35.37010 | 139.92620 | 3840 ft | 205 kts | 330° |
| 2026-04-20 04:16 | 35.38239 | 139.91741 | 3577 ft | 202 kts | 330° |
| 2026-04-20 04:16 | 35.39440 | 139.90884 | 3321 ft | 197 kts | 330° |
| 2026-04-20 04:17 | 35.40614 | 139.90046 | 3061 ft | 193 kts | 330° |
| 2026-04-20 04:17 | 35.41754 | 139.89231 | 2795 ft | 189 kts | 331° |
| 2026-04-20 04:17 | 35.42868 | 139.88437 | 2548 ft | 183 kts | 330° |
| 2026-04-20 04:17 | 35.43963 | 139.87655 | 2309 ft | 179 kts | 330° |
| 2026-04-20 04:18 | 35.45019 | 139.86902 | 2064 ft | 170 kts | 331° |
| 2026-04-20 04:18 | 35.46003 | 139.86199 | 1854 ft | 157 kts | 331° |
| 2026-04-20 04:18 | 35.46903 | 139.85556 | 1686 ft | 141 kts | 332° |
| 2026-04-20 04:18 | 35.47454 | 139.85163 | 1520 ft | 136 kts | 332° |
| 2026-04-20 04:19 | 35.48532 | 139.84395 | 1300 ft | 135 kts | 332° |
| 2026-04-20 04:19 | 35.49349 | 139.83813 | 1123 ft | 136 kts | 331° |
| 2026-04-20 04:19 | 35.49892 | 139.83424 | 977 ft | 135 kts | 333° |
| 2026-04-20 04:19 | 35.50994 | 139.82632 | 821 ft | 141 kts | 331° |
| 2026-04-20 04:20 | 35.51554 | 139.82214 | 696 ft | 150 kts | 331° |
| 2026-04-20 04:20 | 35.52493 | 139.81542 | 553 ft | 147 kts | 332° |
| 2026-04-20 04:20 | 35.53337 | 139.80951 | 302 ft | 134 kts | 333° |
| 2026-04-20 04:20 | 35.54112 | 139.80399 | 97 ft | 127 kts | 333° |
| 2026-04-20 04:21 | 35.54831 | 139.79901 | 25 ft | 108 kts | 333° |
| 2026-04-20 04:21 | 35.55419 | 139.79487 | 24 ft | 88 kts | 330° |
| 2026-04-20 04:21 | 35.55887 | 139.79156 | 24 ft | 55 kts | 330° |
| 2026-04-20 04:21 | 35.56166 | 139.78959 | 24 ft | 44 kts | 330° |
| 2026-04-20 04:22 | 35.56411 | 139.78786 | 24 ft | 21 kts | 330° |
| 2026-04-20 04:22 | 35.56512 | 139.78716 | 25 ft | 17 kts | 330° |
| 2026-04-20 04:22 | 35.56558 | 139.78615 | 25 ft | 13 kts | 239° |
| 2026-04-20 04:22 | 35.56509 | 139.78516 | 24 ft | 13 kts | 240° |
| 2026-04-20 04:23 | 35.56464 | 139.78419 | 23 ft | 13 kts | 240° |
| 2026-04-20 04:23 | 35.56420 | 139.78326 | 23 ft | 12 kts | 240° |
| 2026-04-20 04:23 | 35.56377 | 139.78236 | 23 ft | 12 kts | 240° |
| 2026-04-20 04:23 | 35.56335 | 139.78147 | 22 ft | 12 kts | 240° |
| 2026-04-20 04:24 | 35.56294 | 139.78060 | 22 ft | 12 kts | 240° |
| 2026-04-20 04:24 | 35.56254 | 139.77976 | 22 ft | 11 kts | 240° |
| 2026-04-20 04:24 | 35.56214 | 139.77891 | 23 ft | 13 kts | 240° |
| 2026-04-20 04:24 | 35.56165 | 139.77787 | 22 ft | 15 kts | 240° |
| 2026-04-20 04:25 | 35.56113 | 139.77678 | 22 ft | 14 kts | 238° |
| 2026-04-20 04:25 | 35.56063 | 139.77576 | 24 ft | 14 kts | 240° |
| 2026-04-20 04:25 | 35.56018 | 139.77476 | 23 ft | 13 kts | 248° |
| 2026-04-20 04:25 | 35.56052 | 139.77387 | 22 ft | 13 kts | 330° |
| 2026-04-20 04:26 | 35.56118 | 139.77318 | 24 ft | 12 kts | 303° |
| 2026-04-20 04:26 | 35.56164 | 139.77232 | 26 ft | 12 kts | 302° |
| 2026-04-20 04:26 | 35.56192 | 139.77136 | 23 ft | 12 kts | 283° |
| 2026-04-20 04:26 | 35.56210 | 139.77028 | 22 ft | 13 kts | 271° |
| 2026-04-20 04:27 | 35.56158 | 139.76948 | 23 ft | 13 kts | 214° |
| 2026-04-20 04:27 | 35.56087 | 139.76887 | 28 ft | 12 kts | 215° |
| 2026-04-20 04:27 | 35.56019 | 139.76828 | 25 ft | 12 kts | 214° |
| 2026-04-20 04:27 | 35.55948 | 139.76769 | 23 ft | 12 kts | 214° |
| 2026-04-20 04:28 | 35.55877 | 139.76709 | 24 ft | 12 kts | 215° |
| 2026-04-20 04:28 | 35.55814 | 139.76645 | 23 ft | 12 kts | 230° |
| 2026-04-20 04:28 | 35.55829 | 139.76557 | 24 ft | 12 kts | 310° |
| 2026-04-20 04:28 | 35.55875 | 139.76477 | 22 ft | 11 kts | 303° |
| 2026-04-20 04:29 | 35.55920 | 139.76400 | 22 ft | 11 kts | 306° |
| 2026-04-20 04:29 | 35.55954 | 139.76320 | 22 ft | 11 kts | 278° |
| 2026-04-20 04:29 | 35.55919 | 139.76248 | 22 ft | 10 kts | 218° |
| 2026-04-20 04:29 | 35.55862 | 139.76197 | 23 ft | 10 kts | 216° |
| 2026-04-20 04:30 | 35.55817 | 139.76149 | 22 ft | 8 kts | 237° |
| 2026-04-20 04:30 | 35.55824 | 139.76088 | 22 ft | 8 kts | 314° |
| 2026-04-20 04:30 | 35.55862 | 139.76058 | 23 ft | 5 kts | 328° |
| 2026-04-20 04:30 | 35.55893 | 139.76034 | 22 ft | 5 kts | 329° |
| 2026-04-20 04:31 | 35.55921 | 139.76013 | 22 ft | 2 kts | 329° |
| 2026-04-20 04:31 | 35.55936 | 139.76009 | 23 ft | 2 kts | 7° |
| 2026-04-20 04:31 | 35.55951 | 139.76026 | 22 ft | 4 kts | 53° |
| 2026-04-20 04:31 | 35.55970 | 139.76058 | 22 ft | 4 kts | 55° |
| 2026-04-20 04:32 | 35.55978 | 139.76072 | 22 ft | 1 kts | 56° |
| 2026-04-20 04:32 | 35.55980 | 139.76076 | 22 ft | 1 kts | 56° |
| 2026-04-20 04:32 | 35.55982 | 139.76079 | 22 ft | 0 kts | 56° |